createdAt,value
2018-05-08T00:02:02.418Z,11.92
2018-05-08T00:04:30.029Z,11.91
2018-05-08T00:06:58.298Z,11.93
2018-05-08T00:09:26.983Z,11.94
2018-05-08T00:11:55.564Z,11.94
2018-05-08T00:14:23.133Z,11.93
2018-05-08T00:16:50.752Z,11.88
2018-05-08T00:19:18.307Z,11.81
2018-05-08T00:21:46.209Z,11.77
2018-05-08T00:24:14.476Z,11.78
2018-05-08T00:26:42.876Z,11.80
2018-05-08T00:29:12.394Z,11.81
2018-05-08T00:31:40.104Z,11.81
2018-05-08T00:34:07.681Z,11.78
2018-05-08T00:36:35.284Z,11.72
2018-05-08T00:39:02.936Z,11.66
2018-05-08T00:41:31.412Z,11.65
2018-05-08T00:44:02.228Z,11.65
2018-05-08T00:46:30.485Z,11.63
2018-05-08T00:48:58.030Z,11.65
2018-05-08T00:51:25.617Z,11.64
2018-05-08T00:53:53.208Z,11.62
2018-05-08T00:56:21.147Z,11.54
2018-05-08T00:58:50.376Z,11.52
2018-05-08T01:01:18.917Z,11.48
2018-05-08T01:03:47.413Z,11.49
2018-05-08T01:06:14.988Z,11.51
2018-05-08T01:08:42.556Z,11.51
2018-05-08T01:11:10.116Z,11.49
2018-05-08T01:13:37.894Z,11.51
2018-05-08T01:16:06.716Z,11.50
2018-05-08T01:18:36.051Z,11.51
2018-05-08T01:21:03.646Z,11.48
2018-05-08T01:23:31.237Z,11.37
2018-05-08T01:25:58.795Z,11.38
2018-05-08T01:28:26.349Z,11.38
2018-05-08T01:30:53.987Z,11.39
2018-05-08T01:33:22.965Z,11.38
2018-05-08T01:35:52.346Z,11.37
2018-05-08T01:38:21.894Z,11.36
2018-05-08T01:40:49.507Z,11.38
2018-05-08T01:43:17.209Z,11.38
2018-05-08T01:45:44.829Z,11.39
2018-05-08T01:48:12.504Z,11.38
2018-05-08T01:50:40.160Z,11.38
2018-05-08T01:53:07.876Z,11.36
2018-05-08T01:55:36.002Z,11.36
2018-05-08T01:58:03.600Z,11.30
2018-05-08T02:00:31.184Z,11.29
2018-05-08T02:02:58.784Z,11.29
2018-05-08T02:05:26.685Z,11.31
2018-05-08T02:07:55.572Z,11.32
2018-05-08T02:10:23.416Z,11.33
2018-05-08T02:12:51.965Z,11.30
2018-05-08T02:15:19.578Z,11.33
2018-05-08T02:17:47.199Z,11.34
2018-05-08T02:20:15.015Z,11.34
2018-05-08T02:22:43.726Z,11.35
2018-05-08T02:25:11.432Z,11.36
2018-05-08T02:27:40.379Z,11.37
2018-05-08T02:30:10.277Z,11.37
2018-05-08T02:32:37.836Z,11.37
2018-05-08T02:35:05.392Z,11.35
2018-05-08T02:37:32.969Z,11.32
2018-05-08T02:40:01.624Z,11.30
2018-05-08T02:42:30.412Z,11.30
2018-05-08T02:44:59.623Z,11.29
2018-05-08T02:47:28.090Z,11.30
2018-05-08T02:49:55.687Z,11.30
2018-05-08T02:52:23.256Z,11.32
2018-05-08T02:54:50.868Z,11.28
2018-05-08T02:57:19.580Z,11.27
2018-05-08T02:59:48.123Z,11.26
2018-05-08T03:02:15.805Z,11.27
2018-05-08T03:04:43.504Z,11.30
2018-05-08T03:07:11.169Z,11.32
2018-05-08T03:09:38.724Z,11.32
2018-05-08T03:12:06.286Z,11.33
2018-05-08T03:14:35.021Z,11.33
2018-05-08T03:17:03.657Z,11.35
2018-05-08T03:19:33.900Z,11.37
2018-05-08T03:22:02.530Z,11.39
2018-05-08T03:24:30.090Z,11.41
2018-05-08T03:26:57.674Z,11.42
2018-05-08T03:29:25.319Z,11.42
2018-05-08T03:31:53.249Z,11.41
2018-05-08T03:34:22.266Z,11.35
2018-05-08T03:36:50.965Z,11.32
2018-05-08T03:39:19.536Z,11.32
2018-05-08T03:41:47.128Z,11.32
2018-05-08T03:44:14.687Z,11.29
2018-05-08T03:46:42.287Z,11.26
2018-05-08T03:49:10.184Z,11.23
2018-05-08T03:51:38.223Z,11.24
2018-05-08T03:54:06.391Z,11.24
2018-05-08T03:56:35.044Z,11.25
2018-05-08T03:59:02.602Z,11.25
2018-05-08T04:01:41.971Z,11.26
2018-05-08T04:07:38.308Z,11.27
2018-05-08T04:10:05.998Z,11.28
2018-05-08T04:12:33.653Z,11.29
2018-05-08T04:15:01.261Z,11.28
2018-05-08T04:17:28.901Z,11.28
2018-05-08T04:19:56.501Z,11.28
2018-05-08T04:22:24.169Z,11.28
2018-05-08T04:24:51.862Z,11.27
2018-05-08T04:27:20.493Z,11.24
2018-05-08T04:29:48.211Z,11.25
2018-05-08T04:32:15.809Z,11.26
2018-05-08T04:34:43.380Z,11.25
2018-05-08T04:37:11.024Z,11.25
2018-05-08T04:39:38.671Z,11.26
2018-05-08T04:42:06.424Z,11.26
2018-05-08T04:44:34.366Z,11.27
2018-05-08T04:47:02.442Z,11.27
2018-05-08T04:49:30.233Z,11.26
2018-05-08T04:51:57.828Z,11.27
2018-05-08T04:54:25.454Z,11.27
2018-05-08T04:56:53.105Z,11.22
2018-05-08T04:59:20.850Z,11.20
2018-05-08T05:01:48.573Z,11.21
2018-05-08T05:04:16.313Z,11.20
2018-05-08T05:06:43.904Z,11.22
2018-05-08T05:09:11.471Z,11.23
2018-05-08T05:11:39.053Z,11.24
2018-05-08T05:14:06.707Z,11.25
2018-05-08T05:16:34.555Z,11.27
2018-05-08T05:19:02.265Z,11.30
2018-05-08T05:21:30.277Z,11.32
2018-05-08T05:23:57.928Z,11.33
2018-05-08T05:26:25.498Z,11.33
2018-05-08T05:28:53.051Z,11.34
2018-05-08T05:31:20.886Z,11.33
2018-05-08T05:33:48.489Z,11.33
2018-05-08T05:36:16.209Z,11.33
2018-05-08T05:38:44.846Z,11.36
2018-05-08T05:41:12.453Z,11.38
2018-05-08T05:43:40.155Z,11.39
2018-05-08T05:46:09.468Z,11.40
2018-05-08T05:48:37.088Z,11.38
2018-05-08T05:51:04.740Z,11.40
2018-05-08T05:53:32.559Z,11.42
2018-05-08T05:56:00.220Z,11.43
2018-05-08T05:58:27.951Z,11.40
2018-05-08T06:00:55.530Z,11.37
2018-05-08T06:03:23.154Z,11.37
2018-05-08T06:05:50.770Z,11.37
2018-05-08T06:08:19.564Z,11.39
2018-05-08T06:10:47.213Z,11.42
2018-05-08T06:13:14.932Z,11.42
2018-05-08T06:15:42.485Z,11.42
2018-05-08T06:18:10.036Z,11.43
2018-05-08T06:20:37.614Z,11.45
2018-05-08T06:23:05.356Z,11.47
2018-05-08T06:25:33.085Z,11.49
2018-05-08T06:28:00.834Z,11.47
2018-05-08T06:30:29.794Z,11.49
2018-05-08T06:32:57.348Z,11.47
2018-05-08T06:35:24.934Z,11.49
2018-05-08T06:37:52.534Z,11.50
2018-05-08T06:40:20.369Z,11.50
2018-05-08T06:42:48.063Z,11.49
2018-05-08T06:45:16.036Z,11.48
2018-05-08T06:47:44.961Z,11.50
2018-05-08T06:50:12.779Z,11.52
2018-05-08T06:52:40.356Z,11.56
2018-05-08T06:55:07.936Z,11.57
2018-05-08T06:57:36.657Z,11.59
2018-05-08T07:00:06.937Z,11.60
2018-05-08T07:02:35.756Z,11.63
2018-05-08T07:05:07.288Z,11.62
2018-05-08T07:07:34.893Z,11.59
2018-05-08T07:10:02.528Z,11.64
2018-05-08T07:12:30.233Z,11.66
2018-05-08T07:14:58.292Z,11.69
2018-05-08T07:17:26.681Z,11.73
2018-05-08T07:19:58.026Z,11.74
2018-05-08T07:22:28.334Z,11.75
2018-05-08T07:24:55.957Z,11.78
2018-05-08T07:27:24.641Z,11.80
2018-05-08T07:29:53.523Z,11.79
2018-05-08T07:32:23.579Z,11.81
2018-05-08T07:37:23.930Z,11.89
2018-05-08T07:39:55.404Z,11.93
2018-05-08T07:42:22.990Z,11.99
2018-05-08T07:44:50.692Z,12.04
2018-05-08T07:47:18.411Z,12.05
2018-05-08T07:49:47.589Z,12.05
2018-05-08T07:52:18.291Z,12.11
2018-05-08T07:54:47.064Z,12.19
2018-05-08T07:57:20.216Z,12.23
2018-05-08T07:59:47.770Z,12.29
2018-05-08T08:02:15.619Z,12.28
2018-05-08T08:04:43.243Z,12.27
2018-05-08T08:07:12.135Z,12.29
2018-05-08T08:09:40.065Z,12.25
2018-05-08T08:12:08.279Z,12.23
2018-05-08T08:14:36.105Z,12.20
2018-05-08T08:17:03.699Z,12.22
2018-05-08T08:19:31.212Z,12.28
2018-05-08T08:21:58.859Z,12.35
2018-05-08T08:24:30.104Z,12.39
2018-05-08T08:27:00.294Z,12.43
2018-05-08T08:29:28.056Z,12.54
2018-05-08T08:31:56.057Z,12.68
2018-05-08T08:34:23.723Z,12.81
2018-05-08T08:36:51.444Z,12.84
2018-05-08T08:39:19.124Z,12.90
2018-05-08T08:41:48.073Z,13.01
2018-05-08T08:44:18.472Z,13.13
2018-05-08T08:46:47.632Z,13.27
2018-05-08T08:49:16.353Z,13.39
2018-05-08T08:51:43.918Z,13.52
2018-05-08T08:54:11.640Z,13.61
2018-05-08T08:56:39.275Z,13.71
2018-05-08T08:59:08.235Z,13.70
2018-05-08T09:01:35.861Z,13.70
2018-05-08T09:04:04.150Z,13.78
2018-05-08T09:06:31.751Z,13.90
2018-05-08T09:08:59.369Z,14.03
2018-05-08T09:11:26.996Z,14.20
2018-05-08T09:13:54.732Z,14.39
2018-05-08T09:16:27.320Z,14.47
2018-05-08T09:18:55.915Z,14.51
2018-05-08T09:21:30.603Z,14.59
2018-05-08T09:23:58.187Z,14.63
2018-05-08T09:26:25.791Z,14.72
2018-05-08T09:28:54.177Z,14.85
2018-05-08T09:31:21.835Z,14.99
2018-05-08T09:33:50.481Z,15.11
2018-05-08T09:36:19.747Z,15.22
2018-05-08T09:38:47.939Z,15.28
2018-05-08T09:41:15.524Z,15.30
2018-05-08T09:43:43.119Z,15.33
2018-05-08T09:46:10.668Z,15.40
2018-05-08T09:48:38.242Z,15.56
2018-05-08T09:51:08.429Z,15.75
2018-05-08T09:53:39.207Z,15.96
2018-05-08T09:56:12.121Z,16.16
2018-05-08T09:58:39.679Z,16.30
2018-05-08T10:01:07.335Z,16.39
2018-05-08T10:03:34.888Z,16.40
2018-05-08T10:06:02.531Z,16.34
2018-05-08T10:08:31.721Z,16.27
2018-05-08T10:11:02.581Z,16.18
2018-05-08T10:13:35.254Z,16.03
2018-05-08T10:16:02.981Z,15.94
2018-05-08T10:18:30.499Z,15.88
2018-05-08T10:20:57.998Z,15.78
2018-05-08T10:23:25.686Z,15.58
2018-05-08T10:25:54.072Z,15.42
2018-05-08T10:28:22.579Z,15.34
2018-05-08T10:30:50.467Z,15.30
2018-05-08T10:33:17.990Z,15.21
2018-05-08T10:35:45.515Z,15.03
2018-05-08T10:38:13.059Z,14.93
2018-05-08T10:40:40.701Z,14.78
2018-05-08T10:43:08.331Z,14.70
2018-05-08T10:45:36.188Z,14.63
2018-05-08T10:48:03.770Z,14.55
2018-05-08T10:50:31.353Z,14.49
2018-05-08T10:52:58.975Z,14.40
2018-05-08T10:55:26.523Z,14.19
2018-05-08T10:57:54.194Z,14.09
2018-05-08T11:00:22.443Z,14.04
2018-05-08T11:02:50.627Z,13.94
2018-05-08T11:05:19.865Z,13.84
2018-05-08T11:07:47.380Z,13.76
2018-05-08T11:10:14.938Z,13.61
2018-05-08T11:12:42.455Z,13.54
2018-05-08T11:15:09.983Z,13.51
2018-05-08T11:17:38.560Z,13.52
2018-05-08T11:20:06.459Z,13.53
2018-05-08T11:22:34.325Z,13.54
2018-05-08T11:25:01.858Z,13.60
2018-05-08T11:27:29.342Z,13.64
2018-05-08T11:29:57.307Z,13.65
2018-05-08T11:32:24.903Z,13.63
2018-05-08T11:34:52.533Z,13.63
2018-05-08T11:37:21.828Z,13.64
2018-05-08T11:39:52.782Z,13.62
2018-05-08T11:42:20.645Z,13.59
2018-05-08T11:44:48.659Z,13.56
2018-05-08T11:47:16.227Z,13.54
2018-05-08T11:49:43.890Z,13.44
2018-05-08T11:52:12.303Z,13.39
2018-05-08T11:54:39.974Z,13.36
2018-05-08T11:57:08.354Z,13.32
2018-05-08T11:59:36.021Z,13.29
2018-05-08T12:02:03.579Z,13.24
2018-05-08T12:04:31.312Z,13.21
2018-05-08T12:06:59.096Z,13.20
2018-05-08T12:09:38.233Z,13.20
2018-05-08T12:12:11.698Z,13.20
2018-05-08T12:17:41.930Z,13.15
2018-05-08T12:20:09.494Z,13.12
2018-05-08T12:22:37.103Z,13.13
2018-05-08T12:25:07.077Z,13.12
2018-05-08T12:27:35.343Z,13.11
2018-05-08T12:30:04.425Z,13.05
2018-05-08T12:32:32.151Z,12.98
2018-05-08T12:34:59.748Z,12.94
2018-05-08T12:37:27.299Z,12.84
2018-05-08T12:39:55.220Z,12.83
2018-05-08T12:42:26.602Z,12.88
2018-05-08T12:44:58.412Z,12.95
2018-05-08T12:47:31.608Z,12.99
2018-05-08T12:50:03.842Z,13.05
2018-05-08T12:52:34.680Z,13.14
2018-05-08T12:55:02.247Z,13.25
2018-05-08T12:57:30.823Z,13.38
2018-05-08T13:00:03.366Z,13.42
2018-05-08T13:05:07.601Z,13.58
2018-05-08T13:07:39.569Z,13.69
2018-05-08T13:10:07.099Z,13.78
2018-05-08T13:12:34.756Z,13.87
2018-05-08T13:15:02.475Z,14.01
2018-05-08T13:17:32.398Z,14.14
2018-05-08T13:20:00.541Z,14.28
2018-05-08T13:25:03.849Z,14.55
2018-05-08T13:27:32.392Z,14.74
2018-05-08T13:29:59.940Z,14.91
2018-05-08T13:32:27.617Z,15.06
2018-05-08T13:34:58.477Z,15.17
2018-05-08T13:37:31.989Z,15.30
2018-05-08T13:40:00.384Z,15.44
2018-05-08T13:42:28.505Z,15.61
2018-05-08T13:44:56.064Z,15.69
2018-05-08T13:47:23.603Z,15.72
2018-05-08T13:49:51.144Z,15.81
2018-05-08T13:52:22.557Z,15.88
2018-05-08T13:54:54.371Z,15.90
2018-05-08T13:57:22.763Z,16.02
2018-05-08T13:59:51.531Z,16.09
2018-05-08T14:02:19.074Z,16.09
2018-05-08T14:04:46.607Z,16.15
2018-05-08T14:07:14.143Z,16.18
2018-05-08T14:09:41.867Z,16.30
2018-05-08T14:12:09.462Z,16.42
2018-05-08T14:14:37.084Z,16.37
2018-05-08T14:17:04.639Z,16.35
2018-05-08T14:19:32.206Z,16.40
2018-05-08T14:21:59.813Z,16.38
2018-05-08T14:24:27.554Z,16.48
2018-05-08T14:26:55.185Z,16.65
2018-05-08T14:29:22.771Z,16.77
2018-05-08T14:31:54.915Z,16.81
2018-05-08T14:34:22.477Z,16.95
2018-05-08T14:36:50.010Z,17.02
2018-05-08T14:39:17.575Z,17.20
2018-05-08T14:41:45.299Z,17.36
2018-05-08T14:44:12.913Z,17.55
2018-05-08T14:46:40.492Z,17.60
2018-05-08T14:49:08.161Z,17.62
2018-05-08T14:51:35.699Z,17.57
2018-05-08T14:54:03.286Z,17.49
2018-05-08T14:56:30.849Z,17.32
2018-05-08T14:58:58.545Z,17.44
2018-05-08T15:01:26.365Z,17.53
2018-05-08T15:03:54.808Z,17.52
2018-05-08T15:06:24.143Z,17.43
2018-05-08T15:08:51.795Z,17.39
2018-05-08T15:11:19.399Z,17.43
2018-05-08T15:13:46.940Z,17.58
2018-05-08T15:16:14.714Z,17.69
2018-05-08T15:18:42.349Z,17.76
2018-05-08T15:21:10.302Z,17.69
2018-05-08T15:23:38.191Z,17.66
2018-05-08T15:26:05.728Z,17.79
2018-05-08T15:28:33.272Z,17.89
2018-05-08T15:31:00.827Z,17.94
2018-05-08T15:33:28.624Z,17.83
2018-05-08T15:35:56.404Z,17.87
2018-05-08T15:38:24.899Z,17.94
2018-05-08T15:40:52.540Z,17.98
2018-05-08T15:43:20.080Z,18.14
2018-05-08T15:45:47.651Z,18.24
2018-05-08T15:48:17.358Z,18.26
2018-05-08T15:50:44.949Z,18.29
2018-05-08T15:53:12.573Z,18.19
2018-05-08T15:55:40.256Z,18.20
2018-05-08T15:58:12.276Z,18.31
2018-05-08T16:00:39.801Z,18.42
2018-05-08T16:03:07.289Z,18.54
2018-05-08T16:05:35.025Z,18.64
2018-05-08T16:08:02.643Z,18.54
2018-05-08T16:10:32.709Z,18.55
2018-05-08T16:13:02.639Z,18.67
2018-05-08T16:15:31.575Z,18.81
2018-05-08T16:17:59.152Z,19.00
2018-05-08T16:20:26.755Z,19.14
2018-05-08T16:22:54.321Z,19.07
2018-05-08T16:25:22.153Z,19.18
2018-05-08T16:27:50.932Z,19.31
2018-05-08T16:30:19.536Z,19.40
2018-05-08T16:32:47.888Z,19.52
2018-05-08T16:35:15.567Z,19.20
2018-05-08T16:37:43.151Z,19.36
2018-05-08T16:40:10.659Z,19.49
2018-05-08T16:42:38.451Z,19.59
2018-05-08T16:45:07.704Z,19.60
2018-05-08T16:47:35.397Z,19.67
2018-05-08T16:50:03.179Z,19.59
2018-05-08T16:52:30.715Z,19.58
2018-05-08T16:54:58.227Z,19.57
2018-05-08T16:57:25.824Z,19.55
2018-05-08T16:59:53.703Z,19.38
2018-05-08T17:02:22.276Z,19.36
2018-05-08T17:07:27.353Z,19.36
2018-05-08T17:09:55.009Z,19.39
2018-05-08T17:12:22.599Z,19.52
2018-05-08T17:14:50.249Z,19.58
2018-05-08T17:17:18.227Z,19.60
2018-05-08T17:19:46.883Z,19.47
2018-05-08T17:27:26.327Z,19.41
2018-05-08T17:29:53.913Z,19.36
2018-05-08T17:32:21.462Z,19.34
2018-05-08T17:34:49.319Z,19.13
2018-05-08T17:42:24.427Z,19.18
2018-05-08T17:44:52.774Z,19.25
2018-05-08T17:47:20.333Z,19.21
2018-05-08T17:49:47.861Z,19.19
2018-05-08T17:52:15.442Z,19.15
2018-05-08T17:54:43.902Z,19.11
2018-05-08T18:02:17.355Z,19.15
2018-05-08T18:04:44.935Z,19.04
2018-05-08T18:07:12.480Z,19.09
2018-05-08T18:09:40.111Z,19.13
2018-05-08T18:14:46.763Z,18.98
2018-05-08T18:17:15.535Z,19.06
2018-05-08T18:19:43.177Z,19.10
2018-05-08T18:22:10.743Z,18.97
2018-05-08T18:24:38.292Z,18.88
2018-05-08T18:29:44.056Z,18.59
2018-05-08T18:34:50.672Z,18.25
2018-05-08T18:37:18.327Z,18.03
2018-05-08T18:39:45.851Z,17.75
2018-05-08T18:42:13.444Z,17.44
2018-05-08T18:44:43.570Z,17.10
2018-05-08T18:47:12.248Z,16.83
2018-05-08T18:49:50.795Z,16.60
2018-05-08T18:55:03.443Z,16.02
2018-05-08T18:57:30.983Z,15.78
2018-05-08T19:00:04.226Z,15.58
2018-05-08T19:05:07.684Z,15.32
2018-05-08T19:12:41.468Z,14.95
2018-05-08T19:15:14.760Z,14.80
2018-05-08T19:17:42.588Z,14.71
2018-05-08T19:22:43.101Z,14.48
2018-05-08T19:27:50.968Z,14.20
2018-05-08T19:30:24.042Z,14.07
2018-05-08T19:32:51.660Z,14.00
2018-05-08T19:35:24.909Z,13.94
2018-05-08T19:46:35.937Z,13.59
2018-05-08T19:49:03.513Z,13.52
2018-05-08T19:51:31.129Z,13.45
2018-05-08T20:01:47.842Z,13.20
2018-05-08T20:04:15.457Z,13.16
2018-05-08T20:06:43.059Z,13.12
2018-05-08T20:09:10.647Z,13.07
2018-05-08T20:16:44.712Z,12.94
2018-05-08T20:19:12.764Z,12.90
2018-05-08T20:21:40.435Z,12.86
2018-05-08T20:24:07.995Z,12.80
2018-05-08T20:26:35.607Z,12.76
2018-05-08T20:29:03.323Z,12.73
2018-05-08T20:31:31.860Z,12.69
2018-05-08T20:34:00.310Z,12.67
2018-05-08T20:36:28.203Z,12.66
2018-05-08T20:38:55.911Z,12.62
2018-05-08T20:41:23.503Z,12.60
2018-05-08T20:43:51.052Z,12.59
2018-05-08T20:48:51.959Z,12.55
2018-05-08T20:51:20.582Z,12.52
2018-05-08T20:56:19.791Z,12.47
2018-05-08T20:58:47.419Z,12.43
2018-05-08T21:01:15.195Z,12.40
2018-05-08T21:06:17.778Z,12.35
2018-05-08T21:11:17.772Z,12.31
2018-05-08T21:13:45.400Z,12.29
2018-05-08T21:16:13.092Z,12.27
2018-05-08T21:18:40.709Z,12.22
2018-05-08T21:21:08.460Z,12.19
2018-05-08T21:23:36.104Z,12.15
2018-05-08T21:26:04.608Z,12.13
2018-05-08T21:28:37.791Z,12.13
2018-05-08T21:31:10.887Z,12.13
2018-05-08T21:33:38.428Z,12.11
2018-05-08T21:36:06.106Z,12.08
2018-05-08T21:41:07.917Z,12.05
2018-05-08T21:46:08.211Z,11.99
2018-05-08T21:48:35.803Z,11.98
2018-05-08T21:51:03.371Z,11.96
2018-05-08T21:53:31.023Z,11.94
2018-05-08T21:58:32.203Z,11.89
2018-05-08T22:01:00.846Z,11.85
2018-05-08T22:03:28.885Z,11.83
2018-05-08T22:05:56.499Z,11.81
2018-05-08T22:08:24.011Z,11.80
2018-05-08T22:10:51.863Z,11.76
2018-05-08T22:13:20.313Z,11.75
2018-05-08T22:15:48.609Z,11.73
2018-05-08T22:18:16.223Z,11.73
2018-05-08T22:20:43.768Z,11.72
2018-05-08T22:23:11.279Z,11.71
2018-05-08T22:25:38.792Z,11.71
2018-05-08T22:28:06.454Z,11.70
2018-05-08T22:30:34.847Z,11.70
2018-05-08T22:33:03.575Z,11.68
2018-05-08T22:35:31.920Z,11.66
2018-05-08T22:37:59.470Z,11.62
2018-05-08T22:40:27.028Z,11.58
2018-05-08T22:42:54.575Z,11.56
2018-05-08T22:45:22.182Z,11.53
2018-05-08T22:47:50.812Z,11.51
2018-05-08T22:50:18.860Z,11.48
2018-05-08T22:52:47.628Z,11.45
2018-05-08T22:55:15.198Z,11.40
2018-05-08T22:57:42.890Z,11.35
2018-05-08T23:00:10.413Z,11.31
2018-05-08T23:02:38.031Z,11.26
2018-05-08T23:05:07.699Z,11.22
2018-05-08T23:07:36.375Z,11.17
2018-05-08T23:10:04.027Z,11.13
2018-05-08T23:12:31.579Z,11.11
2018-05-08T23:14:59.103Z,11.08
2018-05-08T23:17:26.703Z,11.06
2018-05-08T23:19:54.474Z,11.02
2018-05-08T23:22:23.250Z,10.99
2018-05-08T23:24:55.640Z,10.97
2018-05-08T23:27:24.703Z,10.94
2018-05-08T23:29:52.315Z,10.92
2018-05-08T23:32:19.910Z,10.90
2018-05-08T23:34:47.470Z,10.89
2018-05-08T23:37:16.044Z,10.88
2018-05-08T23:39:44.990Z,10.86
2018-05-08T23:42:14.680Z,10.84
2018-05-08T23:44:42.851Z,10.82
2018-05-08T23:47:10.399Z,10.79
2018-05-08T23:49:37.945Z,10.77
2018-05-08T23:52:05.586Z,10.75
2018-05-08T23:54:34.138Z,10.74
2018-05-08T23:57:02.077Z,10.71
2018-05-08T23:59:31.583Z,10.69
